createdAt,value
2023-01-29T00:00:10.026Z,24.13
2023-01-29T00:02:36.810Z,23.42
2023-01-29T00:05:20.754Z,22.13
2023-01-29T00:07:50.773Z,20.65
2023-01-29T00:10:17.552Z,20.58
2023-01-29T00:12:44.170Z,20.08
2023-01-29T00:15:10.905Z,18.15
2023-01-29T00:17:37.587Z,20.50
2023-01-29T00:20:04.055Z,22.40
2023-01-29T00:22:30.571Z,26.83
2023-01-29T00:24:56.980Z,22.52
2023-01-29T00:27:23.363Z,22.80
2023-01-29T00:30:09.285Z,21.27
2023-01-29T00:32:36.232Z,21.33
2023-01-29T00:35:02.879Z,24.10
2023-01-29T00:37:29.309Z,21.10
2023-01-29T00:39:56.531Z,22.27
2023-01-29T00:42:41.539Z,23.35
2023-01-29T00:45:08.105Z,24.10
2023-01-29T00:47:34.600Z,25.13
2023-01-29T00:50:11.146Z,25.02
2023-01-29T00:52:37.861Z,25.23
2023-01-29T00:55:05.226Z,22.60
2023-01-29T00:57:32.482Z,20.85
2023-01-29T00:59:58.873Z,21.90
2023-01-29T01:02:44.753Z,22.90
2023-01-29T01:05:14.107Z,24.33
2023-01-29T01:07:41.069Z,19.42
2023-01-29T01:10:22.658Z,23.42
2023-01-29T01:12:50.742Z,21.02
2023-01-29T01:15:17.919Z,20.45
2023-01-29T01:17:44.378Z,21.92
2023-01-29T01:20:11.206Z,24.00
2023-01-29T01:22:37.521Z,19.10
2023-01-29T01:25:04.091Z,22.13
2023-01-29T01:27:30.785Z,20.27
2023-01-29T01:29:57.388Z,24.75
2023-01-29T01:32:23.889Z,26.10
2023-01-29T01:34:51.725Z,27.83
2023-01-29T01:37:18.112Z,25.20
2023-01-29T01:39:49.081Z,28.58
2023-01-29T01:42:15.477Z,25.15
2023-01-29T01:44:52.074Z,22.35
2023-01-29T01:47:20.468Z,26.63
2023-01-29T01:49:47.407Z,27.50
2023-01-29T01:52:15.427Z,25.77
2023-01-29T01:54:42.731Z,26.42
2023-01-29T01:57:16.258Z,26.15
2023-01-29T01:59:48.575Z,31.83
2023-01-29T02:02:34.334Z,28.73
2023-01-29T02:05:19.218Z,26.13
2023-01-29T02:08:06.122Z,24.48
2023-01-29T02:10:37.682Z,28.70
2023-01-29T02:13:05.315Z,26.33
2023-01-29T02:15:31.797Z,26.65
2023-01-29T02:17:58.299Z,25.20
2023-01-29T02:20:26.641Z,27.40
2023-01-29T02:23:11.502Z,24.83
2023-01-29T02:25:37.988Z,29.90
2023-01-29T02:28:27.190Z,31.85
2023-01-29T02:31:00.139Z,31.40
2023-01-29T02:33:26.643Z,29.63
2023-01-29T02:35:59.382Z,28.27
2023-01-29T02:38:28.780Z,27.13
2023-01-29T02:41:04.183Z,25.85
2023-01-29T02:43:49.210Z,29.52
2023-01-29T02:46:34.634Z,30.60
2023-01-29T02:51:34.610Z,25.40
2023-01-29T02:54:21.399Z,27.88
2023-01-29T02:56:58.569Z,27.58
2023-01-29T02:59:45.668Z,27.30
2023-01-29T03:02:16.488Z,25.42
2023-01-29T03:04:46.500Z,23.80
2023-01-29T03:07:22.479Z,22.25
2023-01-29T03:09:50.202Z,20.75
2023-01-29T03:12:33.930Z,21.63
2023-01-29T03:15:15.153Z,24.52
2023-01-29T03:18:07.698Z,24.45
2023-01-29T03:20:35.473Z,21.15
2023-01-29T03:23:06.077Z,18.75
2023-01-29T03:25:53.781Z,22.63
2023-01-29T03:28:40.090Z,27.17
2023-01-29T03:31:28.681Z,24.13
2023-01-29T03:34:00.329Z,23.88
2023-01-29T03:36:38.277Z,25.40
2023-01-29T03:39:05.707Z,24.92
2023-01-29T03:41:34.746Z,26.75
2023-01-29T03:44:16.542Z,25.58
2023-01-29T03:46:53.112Z,23.00
2023-01-29T03:49:25.860Z,31.05
2023-01-29T03:52:21.503Z,29.95
2023-01-29T03:54:50.661Z,32.67
2023-01-29T03:57:21.497Z,24.67
2023-01-29T04:00:02.260Z,27.88
2023-01-29T04:02:32.449Z,25.05
2023-01-29T04:05:11.841Z,24.17
2023-01-29T04:07:40.096Z,26.35
2023-01-29T04:10:11.348Z,27.40
2023-01-29T04:12:40.318Z,23.75
2023-01-29T04:15:09.413Z,26.33
2023-01-29T04:17:37.747Z,26.92
2023-01-29T04:20:04.284Z,29.10
2023-01-29T04:22:32.354Z,28.77
2023-01-29T04:25:02.578Z,28.92
2023-01-29T04:27:34.790Z,25.88
2023-01-29T04:30:04.740Z,25.73
2023-01-29T04:32:32.658Z,21.88
2023-01-29T04:35:17.631Z,27.30
2023-01-29T04:37:56.591Z,20.88
2023-01-29T04:40:32.245Z,23.20
2023-01-29T04:43:08.100Z,21.70
2023-01-29T04:45:53.075Z,23.75
2023-01-29T04:48:22.653Z,23.23
2023-01-29T04:50:48.987Z,24.55
2023-01-29T04:53:38.077Z,25.85
2023-01-29T04:56:07.568Z,24.23
2023-01-29T04:58:34.125Z,25.48
2023-01-29T05:01:02.215Z,26.25
2023-01-29T05:03:29.814Z,24.92
2023-01-29T05:05:57.296Z,25.58
2023-01-29T05:08:25.085Z,23.13
2023-01-29T05:10:52.658Z,24.88
2023-01-29T05:13:20.681Z,27.27
2023-01-29T05:16:05.928Z,26.13
2023-01-29T05:18:32.328Z,28.08
2023-01-29T05:20:59.938Z,27.63
2023-01-29T05:23:26.341Z,22.08
2023-01-29T05:25:52.860Z,23.30
2023-01-29T05:28:19.405Z,25.50
2023-01-29T05:30:49.800Z,24.40
2023-01-29T05:33:16.340Z,23.08
2023-01-29T05:35:42.800Z,26.50
2023-01-29T05:38:09.214Z,26.23
2023-01-29T05:40:36.318Z,23.75
2023-01-29T05:43:02.758Z,26.58
2023-01-29T05:45:29.129Z,27.77
2023-01-29T05:47:56.620Z,23.83
2023-01-29T05:50:22.947Z,28.63
2023-01-29T05:52:49.309Z,30.73
2023-01-29T05:55:15.740Z,23.85
2023-01-29T05:57:42.141Z,28.92
2023-01-29T06:00:09.307Z,26.73
2023-01-29T06:02:35.780Z,22.75
2023-01-29T06:05:02.115Z,24.73
2023-01-29T06:07:28.854Z,24.15
2023-01-29T06:09:55.214Z,24.20
2023-01-29T06:12:21.867Z,22.80
2023-01-29T06:14:48.210Z,28.20
2023-01-29T06:17:14.654Z,24.63
2023-01-29T06:19:41.045Z,25.40
2023-01-29T06:22:07.566Z,23.48
2023-01-29T06:24:33.932Z,29.95
2023-01-29T06:27:00.325Z,22.40
2023-01-29T06:29:26.689Z,23.50
2023-01-29T06:31:53.085Z,23.85
2023-01-29T06:34:19.560Z,25.10
2023-01-29T06:36:46.070Z,28.05
2023-01-29T06:39:12.723Z,32.78
2023-01-29T06:41:39.080Z,29.45
2023-01-29T06:44:05.549Z,22.52
2023-01-29T06:46:32.404Z,26.20
2023-01-29T06:49:00.482Z,26.33
2023-01-29T06:51:26.931Z,25.80
2023-01-29T06:53:54.585Z,28.23
2023-01-29T06:56:20.992Z,26.70
2023-01-29T06:58:47.516Z,26.48
2023-01-29T07:01:25.357Z,23.52
2023-01-29T07:04:00.407Z,26.80
2023-01-29T07:06:27.723Z,29.75
2023-01-29T07:08:54.140Z,24.08
2023-01-29T07:11:20.756Z,25.80
2023-01-29T07:13:47.133Z,24.67
2023-01-29T07:16:13.594Z,24.20
2023-01-29T07:18:39.995Z,27.10
2023-01-29T07:21:07.167Z,29.65
2023-01-29T07:23:34.137Z,26.42
2023-01-29T07:26:01.247Z,24.58
2023-01-29T07:28:27.630Z,27.70
2023-01-29T07:30:58.156Z,23.63
2023-01-29T07:33:25.299Z,27.02
2023-01-29T07:35:51.765Z,39.35
2023-01-29T07:38:18.106Z,26.10
2023-01-29T07:40:44.600Z,34.85
2023-01-29T07:43:11.279Z,33.67
2023-01-29T07:45:38.587Z,27.73
2023-01-29T07:48:05.836Z,28.75
2023-01-29T07:50:33.389Z,29.75
2023-01-29T07:53:00.001Z,27.95
2023-01-29T07:55:26.855Z,32.00
2023-01-29T07:58:00.529Z,32.75
2023-01-29T08:00:27.123Z,32.58
2023-01-29T08:02:53.462Z,30.08
2023-01-29T08:05:20.260Z,28.33
2023-01-29T08:07:54.173Z,28.35
2023-01-29T08:10:27.651Z,30.33
2023-01-29T08:12:58.731Z,28.88
2023-01-29T08:15:25.599Z,27.80
2023-01-29T08:20:38.694Z,26.75
2023-01-29T08:23:06.392Z,30.85
2023-01-29T08:25:33.229Z,29.13
2023-01-29T08:28:00.167Z,32.67
2023-01-29T08:30:27.173Z,27.25
2023-01-29T08:32:53.567Z,33.88
2023-01-29T08:35:20.239Z,33.47
2023-01-29T08:37:54.452Z,32.38
2023-01-29T08:40:21.313Z,30.98
2023-01-29T08:42:47.714Z,33.55
2023-01-29T08:45:14.214Z,32.78
2023-01-29T08:47:45.023Z,30.48
2023-01-29T08:50:11.672Z,35.38
2023-01-29T08:52:38.059Z,35.63
2023-01-29T08:55:04.647Z,35.15
2023-01-29T08:57:31.035Z,29.23
2023-01-29T08:59:57.533Z,29.35
2023-01-29T09:02:23.931Z,35.67
2023-01-29T09:04:50.331Z,33.25
2023-01-29T09:07:16.811Z,29.98
2023-01-29T09:09:43.267Z,31.67
2023-01-29T09:12:09.593Z,30.70
2023-01-29T09:14:35.987Z,34.13
2023-01-29T09:17:02.349Z,33.05
2023-01-29T09:19:28.767Z,34.72
2023-01-29T09:21:55.117Z,30.60
2023-01-29T09:24:21.483Z,35.03
2023-01-29T09:26:47.815Z,33.55
2023-01-29T09:29:14.395Z,32.13
2023-01-29T09:31:40.921Z,32.65
2023-01-29T09:34:07.595Z,37.13
2023-01-29T09:36:33.987Z,36.72
2023-01-29T09:39:00.347Z,31.45
2023-01-29T09:41:27.039Z,36.45
2023-01-29T09:43:55.841Z,36.53
2023-01-29T09:46:30.039Z,35.35
2023-01-29T09:49:03.037Z,31.87
2023-01-29T09:51:32.137Z,36.30
2023-01-29T09:54:06.182Z,35.63
2023-01-29T09:56:32.631Z,32.20
2023-01-29T09:59:01.545Z,37.58
2023-01-29T10:01:57.733Z,39.65
2023-01-29T10:04:24.134Z,40.40
2023-01-29T10:07:01.677Z,41.42
2023-01-29T10:09:41.383Z,35.03
2023-01-29T10:12:26.501Z,33.33
2023-01-29T10:15:00.497Z,37.40
2023-01-29T10:17:45.751Z,37.83
2023-01-29T10:20:31.011Z,39.08
2023-01-29T10:23:23.890Z,38.22
2023-01-29T10:25:51.716Z,34.90
2023-01-29T10:28:20.478Z,33.38
2023-01-29T10:30:51.073Z,34.22
2023-01-29T10:33:19.067Z,39.90
2023-01-29T10:35:53.391Z,35.70
2023-01-29T10:41:02.022Z,32.08
2023-01-29T10:43:35.661Z,32.60
2023-01-29T10:46:11.357Z,31.75
2023-01-29T10:48:45.188Z,35.47
2023-01-29T10:51:14.748Z,41.28
2023-01-29T10:53:58.503Z,33.30
2023-01-29T10:56:43.621Z,34.92
2023-01-29T10:59:19.049Z,34.58
2023-01-29T11:01:45.476Z,37.85
2023-01-29T11:04:12.931Z,37.22
2023-01-29T11:06:39.332Z,37.45
2023-01-29T11:09:24.450Z,37.60
2023-01-29T11:11:54.241Z,41.10
2023-01-29T11:14:35.896Z,41.05
2023-01-29T11:17:02.593Z,43.40
2023-01-29T11:19:39.646Z,38.17
2023-01-29T11:22:12.499Z,51.40
2023-01-29T11:24:38.875Z,42.50
2023-01-29T11:27:14.322Z,35.17
2023-01-29T11:29:48.009Z,38.45
2023-01-29T11:32:34.104Z,39.47
2023-01-29T11:35:03.324Z,35.72
2023-01-29T11:37:35.826Z,36.15
2023-01-29T11:40:02.727Z,34.30
2023-01-29T11:42:31.267Z,33.58
2023-01-29T11:44:57.681Z,38.72
2023-01-29T11:47:27.440Z,36.40
2023-01-29T11:49:55.625Z,37.63
2023-01-29T11:52:23.627Z,33.03
2023-01-29T11:54:52.901Z,33.03
2023-01-29T11:57:28.164Z,36.05
2023-01-29T11:59:56.601Z,35.78
2023-01-29T12:02:30.792Z,33.58
2023-01-29T12:05:02.332Z,31.40
2023-01-29T12:07:29.242Z,32.20
2023-01-29T12:09:57.118Z,32.83
2023-01-29T12:12:23.492Z,27.55
2023-01-29T12:15:02.276Z,35.40
2023-01-29T12:17:29.782Z,33.92
2023-01-29T12:20:01.421Z,32.25
2023-01-29T12:22:27.782Z,31.85
2023-01-29T12:24:57.129Z,37.70
2023-01-29T12:27:26.525Z,31.60
2023-01-29T12:29:58.059Z,33.45
2023-01-29T12:32:43.438Z,32.05
2023-01-29T12:35:21.998Z,35.25
2023-01-29T12:37:48.303Z,26.98
2023-01-29T12:40:16.832Z,29.35
2023-01-29T12:42:46.420Z,33.10
2023-01-29T12:45:17.367Z,29.27
2023-01-29T12:47:45.683Z,27.95
2023-01-29T12:50:15.468Z,28.17
2023-01-29T12:52:47.350Z,30.52
2023-01-29T12:55:16.758Z,32.92
2023-01-29T12:57:48.887Z,28.75
2023-01-29T13:00:18.476Z,28.50
2023-01-29T13:02:52.375Z,29.30
2023-01-29T13:05:20.773Z,34.15
2023-01-29T13:07:50.184Z,28.70
2023-01-29T13:10:19.666Z,28.65
2023-01-29T13:12:54.567Z,33.80
2023-01-29T13:15:23.586Z,29.10
2023-01-29T13:17:53.067Z,30.63
2023-01-29T13:20:34.069Z,31.30
2023-01-29T13:23:15.287Z,26.70
2023-01-29T13:25:41.793Z,27.13
2023-01-29T13:28:16.407Z,27.88
2023-01-29T13:30:43.416Z,28.52
2023-01-29T13:33:18.543Z,31.38
2023-01-29T13:38:25.898Z,25.05
2023-01-29T13:40:54.102Z,28.20
2023-01-29T13:43:21.892Z,28.27
2023-01-29T13:45:48.885Z,28.95
2023-01-29T13:48:36.851Z,28.13
2023-01-29T13:51:04.643Z,24.25
2023-01-29T13:53:40.403Z,27.42
2023-01-29T13:56:30.160Z,28.58
2023-01-29T13:58:57.183Z,25.35
2023-01-29T14:01:42.235Z,24.92
2023-01-29T14:04:25.761Z,26.10
2023-01-29T14:06:52.476Z,25.85
2023-01-29T14:09:54.009Z,28.38
2023-01-29T14:12:23.527Z,25.88
2023-01-29T14:14:49.927Z,28.73
2023-01-29T14:17:17.271Z,29.73
2023-01-29T14:19:50.976Z,26.10
2023-01-29T14:22:20.785Z,22.23
2023-01-29T14:24:47.698Z,26.95
2023-01-29T14:27:21.549Z,25.48
2023-01-29T14:29:48.329Z,23.13
2023-01-29T14:32:14.798Z,26.38
2023-01-29T14:34:45.599Z,28.08
2023-01-29T14:37:14.941Z,24.63
2023-01-29T14:39:50.000Z,26.17
2023-01-29T14:42:27.182Z,25.73
2023-01-29T14:45:00.141Z,29.27
2023-01-29T14:47:32.423Z,22.67
2023-01-29T14:49:59.779Z,26.13
2023-01-29T14:52:43.345Z,25.60
2023-01-29T14:55:23.363Z,27.27
2023-01-29T14:57:51.120Z,26.15
2023-01-29T15:00:22.661Z,23.77
2023-01-29T15:02:59.885Z,27.42
2023-01-29T15:05:30.300Z,26.40
2023-01-29T15:07:58.547Z,25.80
2023-01-29T15:10:43.634Z,33.47
2023-01-29T15:13:13.021Z,25.80
2023-01-29T15:16:02.765Z,25.63
2023-01-29T15:18:29.186Z,27.48
2023-01-29T15:21:03.973Z,29.17
2023-01-29T15:23:32.381Z,31.00
2023-01-29T15:26:01.981Z,28.83
2023-01-29T15:28:32.435Z,31.35
2023-01-29T15:31:00.224Z,32.00
2023-01-29T15:33:26.991Z,27.30
2023-01-29T15:36:08.219Z,32.97
2023-01-29T15:38:35.092Z,29.58
2023-01-29T15:41:16.118Z,29.13
2023-01-29T15:43:44.477Z,29.85
2023-01-29T15:46:13.221Z,29.58
2023-01-29T15:48:41.688Z,29.38
2023-01-29T15:51:08.636Z,29.60
2023-01-29T15:53:37.896Z,27.25
2023-01-29T15:56:08.293Z,28.10
2023-01-29T15:58:34.751Z,29.42
2023-01-29T16:01:01.306Z,27.58
2023-01-29T16:03:30.801Z,28.42
2023-01-29T16:05:57.198Z,26.98
2023-01-29T16:08:24.843Z,26.92
2023-01-29T16:10:59.314Z,28.85
2023-01-29T16:13:27.397Z,28.77
2023-01-29T16:15:58.735Z,29.05
2023-01-29T16:18:58.055Z,29.10
2023-01-29T16:21:36.266Z,29.55
2023-01-29T16:24:07.496Z,30.23
2023-01-29T16:26:35.401Z,26.58
2023-01-29T16:29:05.896Z,28.08
2023-01-29T16:31:32.922Z,28.27
2023-01-29T16:34:05.534Z,28.30
2023-01-29T16:36:32.075Z,27.13
2023-01-29T16:39:00.047Z,30.50
2023-01-29T16:41:26.466Z,34.28
2023-01-29T16:43:54.623Z,27.02
2023-01-29T16:46:32.468Z,31.95
2023-01-29T16:48:59.264Z,34.13
2023-01-29T16:51:37.121Z,31.02
2023-01-29T16:54:12.483Z,28.77
2023-01-29T16:56:39.501Z,30.45
2023-01-29T16:59:06.558Z,29.73
2023-01-29T17:01:34.983Z,31.92
2023-01-29T17:04:01.472Z,29.40
2023-01-29T17:06:28.005Z,29.27
2023-01-29T17:08:54.789Z,29.38
2023-01-29T17:11:26.535Z,29.38
2023-01-29T17:13:54.980Z,31.75
2023-01-29T17:16:35.119Z,31.02
2023-01-29T17:19:01.721Z,33.08
2023-01-29T17:21:31.284Z,32.60
2023-01-29T17:23:57.786Z,33.58
2023-01-29T17:26:25.032Z,37.80
2023-01-29T17:28:51.670Z,29.58
2023-01-29T17:31:18.267Z,42.33
2023-01-29T17:33:45.887Z,34.40
2023-01-29T17:36:14.217Z,27.90
2023-01-29T17:38:41.242Z,29.35
2023-01-29T17:41:12.104Z,34.03
2023-01-29T17:43:38.484Z,35.58
2023-01-29T17:46:04.973Z,31.55
2023-01-29T17:48:31.623Z,36.13
2023-01-29T17:51:03.005Z,32.17
2023-01-29T17:53:44.161Z,34.28
2023-01-29T17:56:31.354Z,32.95
2023-01-29T17:58:57.836Z,39.05
2023-01-29T18:01:24.192Z,30.02
2023-01-29T18:03:50.626Z,36.90
2023-01-29T18:06:24.616Z,33.03
2023-01-29T18:08:50.953Z,32.42
2023-01-29T18:11:17.346Z,30.33
2023-01-29T18:13:43.695Z,32.72
2023-01-29T18:16:10.153Z,33.55
2023-01-29T18:18:36.641Z,33.08
2023-01-29T18:21:03.115Z,28.40
2023-01-29T18:23:31.135Z,29.38
2023-01-29T18:25:58.018Z,34.50
2023-01-29T18:28:24.887Z,30.65
2023-01-29T18:30:51.431Z,33.25
2023-01-29T18:33:18.024Z,31.13
2023-01-29T18:35:45.176Z,31.05
2023-01-29T18:38:11.660Z,28.98
2023-01-29T18:40:38.273Z,29.27
2023-01-29T18:43:04.746Z,29.42
2023-01-29T18:45:31.561Z,27.80
2023-01-29T18:47:59.231Z,30.65
2023-01-29T18:50:26.524Z,29.75
2023-01-29T18:52:53.400Z,36.30
2023-01-29T18:55:19.917Z,28.88
2023-01-29T18:58:28.852Z,33.17
2023-01-29T19:00:32.853Z,33.33
2023-01-29T19:02:59.710Z,25.25
2023-01-29T19:05:26.177Z,26.27
2023-01-29T19:07:52.727Z,33.85
2023-01-29T19:10:19.211Z,31.88
2023-01-29T19:12:45.641Z,32.72
2023-01-29T19:15:12.153Z,33.08
2023-01-29T19:17:38.905Z,32.85
2023-01-29T19:20:05.439Z,35.13
2023-01-29T19:22:32.476Z,35.42
2023-01-29T19:24:58.990Z,34.45
2023-01-29T19:27:30.186Z,35.72
2023-01-29T19:29:59.661Z,31.52
2023-01-29T19:32:26.847Z,32.58
2023-01-29T19:34:53.471Z,39.95
2023-01-29T19:37:19.860Z,39.00
2023-01-29T19:39:46.270Z,38.28
2023-01-29T19:42:12.722Z,38.50
2023-01-29T19:44:39.850Z,39.20
2023-01-29T19:47:06.334Z,43.58
2023-01-29T19:49:34.095Z,40.42
2023-01-29T19:52:01.136Z,43.38
2023-01-29T19:54:27.825Z,36.97
2023-01-29T19:56:54.527Z,39.60
2023-01-29T19:59:21.108Z,40.17
2023-01-29T20:01:47.657Z,38.70
2023-01-29T20:04:14.250Z,34.97
2023-01-29T20:06:40.918Z,46.42
2023-01-29T20:09:07.359Z,36.65
2023-01-29T20:11:34.063Z,37.03
2023-01-29T20:14:00.498Z,43.90
2023-01-29T20:16:27.003Z,36.33
2023-01-29T20:18:53.410Z,45.58
2023-01-29T20:21:22.334Z,41.28
2023-01-29T20:23:49.927Z,43.00
2023-01-29T20:26:17.358Z,39.10
2023-01-29T20:28:45.584Z,34.05
2023-01-29T20:31:12.036Z,38.10
2023-01-29T20:33:39.624Z,37.10
2023-01-29T20:36:07.631Z,44.33
2023-01-29T20:38:34.717Z,33.22
2023-01-29T20:41:05.325Z,35.25
2023-01-29T20:43:32.109Z,41.60
2023-01-29T20:45:58.939Z,35.90
2023-01-29T20:48:26.166Z,35.40
2023-01-29T20:50:52.744Z,33.85
2023-01-29T20:53:19.307Z,35.20
2023-01-29T20:55:45.966Z,36.20
2023-01-29T20:58:12.453Z,33.60
2023-01-29T21:00:39.021Z,32.83
2023-01-29T21:03:05.476Z,32.92
2023-01-29T21:05:32.608Z,38.33
2023-01-29T21:07:59.124Z,37.90
2023-01-29T21:10:25.620Z,36.53
2023-01-29T21:12:52.160Z,41.88
2023-01-29T21:15:18.565Z,46.53
2023-01-29T21:17:47.166Z,39.47
2023-01-29T21:20:13.726Z,37.20
2023-01-29T21:22:42.510Z,31.83
2023-01-29T21:25:09.012Z,37.22
2023-01-29T21:27:35.515Z,41.75
2023-01-29T21:30:02.290Z,38.80
2023-01-29T21:32:28.653Z,32.00
2023-01-29T21:34:55.079Z,27.83
2023-01-29T21:37:21.487Z,32.45
2023-01-29T21:39:47.862Z,22.02
2023-01-29T21:42:33.139Z,25.27
2023-01-29T21:44:59.520Z,25.35
2023-01-29T21:47:25.940Z,18.23
2023-01-29T21:49:52.308Z,22.15
2023-01-29T21:52:18.731Z,17.70
2023-01-29T21:54:48.748Z,24.05
2023-01-29T21:57:16.117Z,21.75
2023-01-29T21:59:43.267Z,35.30
2023-01-29T22:02:16.800Z,28.92
2023-01-29T22:04:43.271Z,20.20
2023-01-29T22:07:10.474Z,19.02
2023-01-29T22:09:37.229Z,26.80
2023-01-29T22:12:05.130Z,26.05
2023-01-29T22:14:31.492Z,21.55
2023-01-29T22:16:57.962Z,22.40
2023-01-29T22:19:25.396Z,24.40
2023-01-29T22:21:55.045Z,23.73
2023-01-29T22:24:21.927Z,22.25
2023-01-29T22:26:49.452Z,18.02
2023-01-29T22:29:19.583Z,19.67
2023-01-29T22:31:46.393Z,20.48
2023-01-29T22:34:13.487Z,16.55
2023-01-29T22:36:39.853Z,18.55
2023-01-29T22:39:07.661Z,14.38
2023-01-29T22:41:34.051Z,14.80
2023-01-29T22:44:01.062Z,13.18
2023-01-29T22:46:27.479Z,14.70
2023-01-29T22:48:54.070Z,17.27
2023-01-29T22:51:20.465Z,16.48
2023-01-29T22:53:50.757Z,16.73
2023-01-29T22:56:17.724Z,12.35
2023-01-29T22:58:44.224Z,21.63
2023-01-29T23:01:10.726Z,10.95
2023-01-29T23:03:37.182Z,19.88
2023-01-29T23:06:03.855Z,14.43
2023-01-29T23:08:31.864Z,18.15
2023-01-29T23:11:13.958Z,17.40
2023-01-29T23:13:44.806Z,12.60
2023-01-29T23:16:11.712Z,10.25
2023-01-29T23:18:38.215Z,10.00
2023-01-29T23:21:04.698Z,17.42
2023-01-29T23:23:32.132Z,15.93
2023-01-29T23:26:17.526Z,16.05
2023-01-29T23:28:44.466Z,14.80
2023-01-29T23:31:11.405Z,16.23
2023-01-29T23:33:37.873Z,13.63
2023-01-29T23:36:04.641Z,15.90
2023-01-29T23:38:30.962Z,23.42
2023-01-29T23:40:58.127Z,21.10
2023-01-29T23:43:25.205Z,21.92
2023-01-29T23:45:51.542Z,15.32
2023-01-29T23:48:18.022Z,20.52
2023-01-29T23:50:44.560Z,24.25
2023-01-29T23:53:10.954Z,20.38
2023-01-29T23:55:37.375Z,29.38
2023-01-29T23:58:03.895Z,22.52
